sensor_id;sensor_type;location;lat;lon;timestamp;P1;durP1;ratioP1;P2;durP2;ratioP2
59424;SDS011;45231;44.826;20.312;2023-06-10T00:01:22;22.65;;;17.88;;
59424;SDS011;45231;44.826;20.312;2023-06-10T00:03:49;21.08;;;17.58;;
59424;SDS011;45231;44.826;20.312;2023-06-10T00:06:17;22.88;;;18.05;;
59424;SDS011;45231;44.826;20.312;2023-06-10T00:08:43;26.55;;;18.67;;
59424;SDS011;45231;44.826;20.312;2023-06-10T00:11:09;21.45;;;17.60;;
59424;SDS011;45231;44.826;20.312;2023-06-10T00:13:35;23.85;;;19.08;;
59424;SDS011;45231;44.826;20.312;2023-06-10T00:16:02;23.45;;;18.48;;
59424;SDS011;45231;44.826;20.312;2023-06-10T00:18:28;24.80;;;19.42;;
59424;SDS011;45231;44.826;20.312;2023-06-10T00:20:56;25.30;;;19.10;;
59424;SDS011;45231;44.826;20.312;2023-06-10T00:23:28;26.75;;;19.77;;
59424;SDS011;45231;44.826;20.312;2023-06-10T00:25:56;23.55;;;19.27;;
59424;SDS011;45231;44.826;20.312;2023-06-10T00:30:48;23.88;;;18.52;;
59424;SDS011;45231;44.826;20.312;2023-06-10T00:33:14;22.08;;;18.42;;
59424;SDS011;45231;44.826;20.312;2023-06-10T00:35:40;22.63;;;18.40;;
59424;SDS011;45231;44.826;20.312;2023-06-10T00:38:06;23.13;;;18.73;;
59424;SDS011;45231;44.826;20.312;2023-06-10T00:40:33;23.48;;;19.73;;
59424;SDS011;45231;44.826;20.312;2023-06-10T00:42:59;23.20;;;18.48;;
59424;SDS011;45231;44.826;20.312;2023-06-10T00:45:25;26.02;;;19.90;;
59424;SDS011;45231;44.826;20.312;2023-06-10T00:47:51;24.00;;;19.25;;
59424;SDS011;45231;44.826;20.312;2023-06-10T00:50:17;20.88;;;18.27;;
59424;SDS011;45231;44.826;20.312;2023-06-10T00:52:43;24.10;;;17.77;;
59424;SDS011;45231;44.826;20.312;2023-06-10T00:55:11;22.40;;;18.20;;
59424;SDS011;45231;44.826;20.312;2023-06-10T00:57:37;24.75;;;19.20;;
59424;SDS011;45231;44.826;20.312;2023-06-10T01:00:03;25.23;;;18.88;;
59424;SDS011;45231;44.826;20.312;2023-06-10T01:02:32;24.17;;;18.58;;
59424;SDS011;45231;44.826;20.312;2023-06-10T01:04:59;26.38;;;19.02;;
59424;SDS011;45231;44.826;20.312;2023-06-10T01:07:28;26.13;;;19.80;;
59424;SDS011;45231;44.826;20.312;2023-06-10T01:15:13;26.33;;;19.98;;
59424;SDS011;45231;44.826;20.312;2023-06-10T01:17:59;24.45;;;20.00;;
59424;SDS011;45231;44.826;20.312;2023-06-10T01:20:27;25.03;;;20.33;;
59424;SDS011;45231;44.826;20.312;2023-06-10T01:22:56;25.98;;;19.65;;
59424;SDS011;45231;44.826;20.312;2023-06-10T01:25:26;28.13;;;20.95;;
59424;SDS011;45231;44.826;20.312;2023-06-10T01:28:04;22.80;;;20.05;;
59424;SDS011;45231;44.826;20.312;2023-06-10T01:30:38;26.45;;;19.70;;
59424;SDS011;45231;44.826;20.312;2023-06-10T01:33:06;24.88;;;20.65;;
59424;SDS011;45231;44.826;20.312;2023-06-10T01:35:34;28.23;;;21.02;;
59424;SDS011;45231;44.826;20.312;2023-06-10T01:38:02;28.17;;;21.33;;
59424;SDS011;45231;44.826;20.312;2023-06-10T01:40:29;26.05;;;21.00;;
59424;SDS011;45231;44.826;20.312;2023-06-10T01:42:55;31.63;;;22.75;;
59424;SDS011;45231;44.826;20.312;2023-06-10T01:45:21;28.83;;;21.98;;
59424;SDS011;45231;44.826;20.312;2023-06-10T01:47:47;26.63;;;22.23;;
59424;SDS011;45231;44.826;20.312;2023-06-10T01:50:13;29.00;;;21.90;;
59424;SDS011;45231;44.826;20.312;2023-06-10T01:52:41;27.83;;;22.15;;
59424;SDS011;45231;44.826;20.312;2023-06-10T01:55:07;29.20;;;21.80;;
59424;SDS011;45231;44.826;20.312;2023-06-10T01:57:33;28.67;;;22.05;;
59424;SDS011;45231;44.826;20.312;2023-06-10T02:00:00;28.38;;;21.42;;
59424;SDS011;45231;44.826;20.312;2023-06-10T02:02:26;27.17;;;22.13;;
59424;SDS011;45231;44.826;20.312;2023-06-10T02:04:52;26.90;;;21.35;;
59424;SDS011;45231;44.826;20.312;2023-06-10T02:07:18;28.20;;;20.73;;
59424;SDS011;45231;44.826;20.312;2023-06-10T02:09:44;26.80;;;20.20;;
59424;SDS011;45231;44.826;20.312;2023-06-10T02:12:10;26.75;;;20.88;;
59424;SDS011;45231;44.826;20.312;2023-06-10T02:17:02;26.65;;;20.25;;
59424;SDS011;45231;44.826;20.312;2023-06-10T02:19:29;31.25;;;22.92;;
59424;SDS011;45231;44.826;20.312;2023-06-10T02:21:55;33.47;;;21.63;;
59424;SDS011;45231;44.826;20.312;2023-06-10T02:24:22;29.08;;;21.05;;
59424;SDS011;45231;44.826;20.312;2023-06-10T02:26:48;28.13;;;21.13;;
59424;SDS011;45231;44.826;20.312;2023-06-10T02:29:16;27.92;;;21.90;;
59424;SDS011;45231;44.826;20.312;2023-06-10T02:31:42;26.08;;;19.88;;
59424;SDS011;45231;44.826;20.312;2023-06-10T02:34:08;33.20;;;22.70;;
59424;SDS011;45231;44.826;20.312;2023-06-10T02:36:35;29.02;;;22.77;;
59424;SDS011;45231;44.826;20.312;2023-06-10T02:39:01;28.20;;;22.10;;
59424;SDS011;45231;44.826;20.312;2023-06-10T02:41:28;31.05;;;23.10;;
59424;SDS011;45231;44.826;20.312;2023-06-10T02:43:54;31.30;;;23.48;;
59424;SDS011;45231;44.826;20.312;2023-06-10T02:46:20;29.48;;;23.33;;
59424;SDS011;45231;44.826;20.312;2023-06-10T02:48:46;35.97;;;25.65;;
59424;SDS011;45231;44.826;20.312;2023-06-10T02:51:14;39.88;;;27.80;;
59424;SDS011;45231;44.826;20.312;2023-06-10T02:53:40;31.58;;;23.83;;
59424;SDS011;45231;44.826;20.312;2023-06-10T02:56:06;35.10;;;26.27;;
59424;SDS011;45231;44.826;20.312;2023-06-10T02:58:32;36.58;;;26.50;;
59424;SDS011;45231;44.826;20.312;2023-06-10T03:00:58;34.58;;;25.83;;
59424;SDS011;45231;44.826;20.312;2023-06-10T03:03:24;31.83;;;24.60;;
59424;SDS011;45231;44.826;20.312;2023-06-10T03:05:52;34.90;;;26.58;;
59424;SDS011;45231;44.826;20.312;2023-06-10T03:08:19;35.20;;;25.33;;
59424;SDS011;45231;44.826;20.312;2023-06-10T03:10:45;31.65;;;23.52;;
59424;SDS011;45231;44.826;20.312;2023-06-10T03:13:11;30.38;;;24.27;;
59424;SDS011;45231;44.826;20.312;2023-06-10T03:15:37;33.83;;;26.33;;
59424;SDS011;45231;44.826;20.312;2023-06-10T03:18:05;32.90;;;23.98;;
59424;SDS011;45231;44.826;20.312;2023-06-10T03:20:32;36.33;;;25.58;;
59424;SDS011;45231;44.826;20.312;2023-06-10T03:23:02;31.83;;;24.92;;
59424;SDS011;45231;44.826;20.312;2023-06-10T03:25:28;40.90;;;27.25;;
59424;SDS011;45231;44.826;20.312;2023-06-10T03:27:55;36.10;;;27.35;;
59424;SDS011;45231;44.826;20.312;2023-06-10T03:30:21;36.45;;;26.60;;
59424;SDS011;45231;44.826;20.312;2023-06-10T03:32:47;38.85;;;27.08;;
59424;SDS011;45231;44.826;20.312;2023-06-10T03:35:14;32.75;;;24.52;;
59424;SDS011;45231;44.826;20.312;2023-06-10T03:37:40;33.58;;;24.17;;
59424;SDS011;45231;44.826;20.312;2023-06-10T03:40:07;32.17;;;24.40;;
59424;SDS011;45231;44.826;20.312;2023-06-10T03:42:33;29.02;;;23.02;;
59424;SDS011;45231;44.826;20.312;2023-06-10T03:45:00;31.00;;;22.63;;
59424;SDS011;45231;44.826;20.312;2023-06-10T03:47:26;30.50;;;21.58;;
59424;SDS011;45231;44.826;20.312;2023-06-10T03:49:52;32.05;;;23.30;;
59424;SDS011;45231;44.826;20.312;2023-06-10T03:52:18;27.63;;;22.08;;
59424;SDS011;45231;44.826;20.312;2023-06-10T03:54:44;29.77;;;21.25;;
59424;SDS011;45231;44.826;20.312;2023-06-10T03:57:10;30.60;;;21.25;;
59424;SDS011;45231;44.826;20.312;2023-06-10T03:59:36;29.67;;;20.70;;
59424;SDS011;45231;44.826;20.312;2023-06-10T04:02:02;26.90;;;20.20;;
59424;SDS011;45231;44.826;20.312;2023-06-10T04:04:29;27.55;;;20.25;;
59424;SDS011;45231;44.826;20.312;2023-06-10T04:06:55;25.88;;;19.48;;
59424;SDS011;45231;44.826;20.312;2023-06-10T04:09:22;24.85;;;19.27;;
59424;SDS011;45231;44.826;20.312;2023-06-10T04:11:48;27.63;;;19.35;;
59424;SDS011;45231;44.826;20.312;2023-06-10T04:14:14;24.05;;;17.48;;
59424;SDS011;45231;44.826;20.312;2023-06-10T04:16:40;24.35;;;17.13;;
59424;SDS011;45231;44.826;20.312;2023-06-10T04:19:07;25.13;;;17.80;;
59424;SDS011;45231;44.826;20.312;2023-06-10T04:21:33;23.63;;;18.70;;
59424;SDS011;45231;44.826;20.312;2023-06-10T04:24:01;28.25;;;19.10;;
59424;SDS011;45231;44.826;20.312;2023-06-10T04:26:27;23.90;;;17.83;;
59424;SDS011;45231;44.826;20.312;2023-06-10T04:28:53;28.30;;;18.05;;
59424;SDS011;45231;44.826;20.312;2023-06-10T04:31:19;31.15;;;19.55;;
59424;SDS011;45231;44.826;20.312;2023-06-10T04:33:45;25.63;;;18.92;;
59424;SDS011;45231;44.826;20.312;2023-06-10T04:36:11;26.17;;;20.45;;
59424;SDS011;45231;44.826;20.312;2023-06-10T04:38:39;24.23;;;18.80;;
59424;SDS011;45231;44.826;20.312;2023-06-10T04:41:06;27.45;;;20.00;;
59424;SDS011;45231;44.826;20.312;2023-06-10T04:43:32;22.48;;;17.33;;
59424;SDS011;45231;44.826;20.312;2023-06-10T04:45:58;24.25;;;15.48;;
59424;SDS011;45231;44.826;20.312;2023-06-10T04:48:24;23.70;;;16.88;;
59424;SDS011;45231;44.826;20.312;2023-06-10T04:50:51;20.98;;;14.63;;
59424;SDS011;45231;44.826;20.312;2023-06-10T04:53:17;17.48;;;13.38;;
59424;SDS011;45231;44.826;20.312;2023-06-10T04:55:43;17.98;;;14.27;;
59424;SDS011;45231;44.826;20.312;2023-06-10T04:58:09;22.60;;;15.52;;
59424;SDS011;45231;44.826;20.312;2023-06-10T05:00:35;21.70;;;13.60;;
59424;SDS011;45231;44.826;20.312;2023-06-10T05:03:01;26.00;;;12.95;;
59424;SDS011;45231;44.826;20.312;2023-06-10T05:05:27;17.02;;;11.88;;
59424;SDS011;45231;44.826;20.312;2023-06-10T05:07:53;15.18;;;11.50;;
59424;SDS011;45231;44.826;20.312;2023-06-10T05:10:19;16.40;;;8.70;;
59424;SDS011;45231;44.826;20.312;2023-06-10T05:12:45;13.90;;;9.55;;
59424;SDS011;45231;44.826;20.312;2023-06-10T05:15:11;11.85;;;7.28;;
59424;SDS011;45231;44.826;20.312;2023-06-10T05:17:37;12.70;;;8.45;;
59424;SDS011;45231;44.826;20.312;2023-06-10T05:20:04;9.48;;;6.18;;
59424;SDS011;45231;44.826;20.312;2023-06-10T05:22:30;9.32;;;6.22;;
59424;SDS011;45231;44.826;20.312;2023-06-10T05:24:56;8.45;;;5.60;;
59424;SDS011;45231;44.826;20.312;2023-06-10T05:27:22;12.30;;;5.95;;
59424;SDS011;45231;44.826;20.312;2023-06-10T05:29:48;9.88;;;5.60;;
59424;SDS011;45231;44.826;20.312;2023-06-10T05:32:14;8.02;;;5.75;;
59424;SDS011;45231;44.826;20.312;2023-06-10T05:34:40;10.43;;;5.78;;
59424;SDS011;45231;44.826;20.312;2023-06-10T05:37:06;8.75;;;5.72;;
59424;SDS011;45231;44.826;20.312;2023-06-10T05:39:32;11.05;;;6.10;;
59424;SDS011;45231;44.826;20.312;2023-06-10T05:42:02;12.93;;;7.30;;
59424;SDS011;45231;44.826;20.312;2023-06-10T05:44:28;9.32;;;6.28;;
59424;SDS011;45231;44.826;20.312;2023-06-10T05:46:54;10.65;;;6.00;;
59424;SDS011;45231;44.826;20.312;2023-06-10T05:49:21;9.75;;;6.22;;
59424;SDS011;45231;44.826;20.312;2023-06-10T05:51:47;10.55;;;6.25;;
59424;SDS011;45231;44.826;20.312;2023-06-10T05:54:13;10.82;;;6.80;;
59424;SDS011;45231;44.826;20.312;2023-06-10T05:56:39;20.92;;;7.78;;
59424;SDS011;45231;44.826;20.312;2023-06-10T05:59:05;9.38;;;6.78;;
59424;SDS011;45231;44.826;20.312;2023-06-10T06:01:31;10.73;;;6.53;;
59424;SDS011;45231;44.826;20.312;2023-06-10T06:06:23;11.30;;;7.85;;
59424;SDS011;45231;44.826;20.312;2023-06-10T06:08:50;15.98;;;8.43;;
59424;SDS011;45231;44.826;20.312;2023-06-10T06:11:16;12.40;;;7.90;;
59424;SDS011;45231;44.826;20.312;2023-06-10T06:13:42;11.75;;;7.05;;
59424;SDS011;45231;44.826;20.312;2023-06-10T06:16:08;11.25;;;7.32;;
59424;SDS011;45231;44.826;20.312;2023-06-10T06:18:34;12.23;;;6.88;;
59424;SDS011;45231;44.826;20.312;2023-06-10T06:21:00;10.82;;;6.60;;
59424;SDS011;45231;44.826;20.312;2023-06-10T06:23:26;9.35;;;5.72;;
59424;SDS011;45231;44.826;20.312;2023-06-10T06:25:52;10.18;;;6.93;;
59424;SDS011;45231;44.826;20.312;2023-06-10T06:28:18;8.25;;;5.57;;
59424;SDS011;45231;44.826;20.312;2023-06-10T06:30:46;8.95;;;5.45;;
59424;SDS011;45231;44.826;20.312;2023-06-10T06:35:38;8.68;;;5.20;;
59424;SDS011;45231;44.826;20.312;2023-06-10T06:38:05;9.93;;;5.55;;
59424;SDS011;45231;44.826;20.312;2023-06-10T06:40:31;8.85;;;5.00;;
59424;SDS011;45231;44.826;20.312;2023-06-10T06:42:57;7.78;;;4.90;;
59424;SDS011;45231;44.826;20.312;2023-06-10T06:45:23;9.00;;;5.15;;
59424;SDS011;45231;44.826;20.312;2023-06-10T06:47:49;8.05;;;5.03;;
59424;SDS011;45231;44.826;20.312;2023-06-10T06:50:16;7.82;;;4.75;;
59424;SDS011;45231;44.826;20.312;2023-06-10T06:55:08;8.63;;;5.13;;
59424;SDS011;45231;44.826;20.312;2023-06-10T06:57:34;9.45;;;5.03;;
59424;SDS011;45231;44.826;20.312;2023-06-10T07:00:01;7.93;;;4.60;;
59424;SDS011;45231;44.826;20.312;2023-06-10T07:02:27;9.38;;;4.43;;
59424;SDS011;45231;44.826;20.312;2023-06-10T07:04:53;8.20;;;4.60;;
59424;SDS011;45231;44.826;20.312;2023-06-10T07:07:21;9.30;;;4.35;;
59424;SDS011;45231;44.826;20.312;2023-06-10T07:12:13;7.32;;;4.15;;
59424;SDS011;45231;44.826;20.312;2023-06-10T07:14:39;7.70;;;4.28;;
59424;SDS011;45231;44.826;20.312;2023-06-10T07:19:31;8.77;;;4.20;;
59424;SDS011;45231;44.826;20.312;2023-06-10T07:21:57;7.55;;;3.42;;
59424;SDS011;45231;44.826;20.312;2023-06-10T07:24:23;7.45;;;4.15;;
59424;SDS011;45231;44.826;20.312;2023-06-10T07:26:50;9.43;;;4.00;;
59424;SDS011;45231;44.826;20.312;2023-06-10T07:29:16;6.95;;;3.70;;
59424;SDS011;45231;44.826;20.312;2023-06-10T07:31:42;7.55;;;3.92;;
59424;SDS011;45231;44.826;20.312;2023-06-10T07:34:08;7.15;;;3.55;;
59424;SDS011;45231;44.826;20.312;2023-06-10T07:39:01;6.60;;;3.20;;
59424;SDS011;45231;44.826;20.312;2023-06-10T07:41:27;5.40;;;3.20;;
59424;SDS011;45231;44.826;20.312;2023-06-10T07:43:53;6.60;;;3.10;;
59424;SDS011;45231;44.826;20.312;2023-06-10T07:46:21;6.25;;;3.25;;
59424;SDS011;45231;44.826;20.312;2023-06-10T07:48:48;6.50;;;3.88;;
59424;SDS011;45231;44.826;20.312;2023-06-10T07:53:40;9.10;;;3.42;;
59424;SDS011;45231;44.826;20.312;2023-06-10T07:56:06;8.13;;;3.15;;
59424;SDS011;45231;44.826;20.312;2023-06-10T08:00:58;8.38;;;3.80;;
59424;SDS011;45231;44.826;20.312;2023-06-10T08:05:50;8.48;;;3.60;;
59424;SDS011;45231;44.826;20.312;2023-06-10T08:10:41;7.47;;;3.65;;
59424;SDS011;45231;44.826;20.312;2023-06-10T08:13:08;8.80;;;3.22;;
59424;SDS011;45231;44.826;20.312;2023-06-10T08:15:34;6.22;;;3.65;;
59424;SDS011;45231;44.826;20.312;2023-06-10T08:18:00;7.75;;;3.60;;
59424;SDS011;45231;44.826;20.312;2023-06-10T08:20:26;7.15;;;3.55;;
59424;SDS011;45231;44.826;20.312;2023-06-10T08:22:52;8.95;;;4.00;;
59424;SDS011;45231;44.826;20.312;2023-06-10T08:25:18;6.75;;;3.08;;
59424;SDS011;45231;44.826;20.312;2023-06-10T08:27:47;5.82;;;2.92;;
59424;SDS011;45231;44.826;20.312;2023-06-10T08:30:13;7.03;;;2.72;;
59424;SDS011;45231;44.826;20.312;2023-06-10T08:32:39;6.10;;;2.75;;
59424;SDS011;45231;44.826;20.312;2023-06-10T08:35:05;6.03;;;2.70;;
59424;SDS011;45231;44.826;20.312;2023-06-10T08:37:31;6.25;;;2.25;;
59424;SDS011;45231;44.826;20.312;2023-06-10T08:39:57;14.27;;;3.00;;
59424;SDS011;45231;44.826;20.312;2023-06-10T08:42:33;7.07;;;2.35;;
59424;SDS011;45231;44.826;20.312;2023-06-10T08:45:00;4.60;;;2.28;;
59424;SDS011;45231;44.826;20.312;2023-06-10T08:47:28;4.47;;;2.17;;
59424;SDS011;45231;44.826;20.312;2023-06-10T08:49:56;5.20;;;2.50;;
59424;SDS011;45231;44.826;20.312;2023-06-10T08:52:26;6.10;;;2.40;;
59424;SDS011;45231;44.826;20.312;2023-06-10T08:55:05;6.53;;;2.60;;
59424;SDS011;45231;44.826;20.312;2023-06-10T08:57:35;4.32;;;2.05;;
59424;SDS011;45231;44.826;20.312;2023-06-10T09:00:02;5.13;;;2.30;;
59424;SDS011;45231;44.826;20.312;2023-06-10T09:02:28;6.32;;;2.17;;
59424;SDS011;45231;44.826;20.312;2023-06-10T09:04:55;5.68;;;2.40;;
59424;SDS011;45231;44.826;20.312;2023-06-10T09:07:23;5.93;;;2.30;;
59424;SDS011;45231;44.826;20.312;2023-06-10T09:09:49;6.80;;;2.20;;
59424;SDS011;45231;44.826;20.312;2023-06-10T09:12:18;6.65;;;2.20;;
59424;SDS011;45231;44.826;20.312;2023-06-10T09:14:44;5.38;;;2.20;;
59424;SDS011;45231;44.826;20.312;2023-06-10T09:17:10;4.80;;;2.00;;
59424;SDS011;45231;44.826;20.312;2023-06-10T09:19:38;4.55;;;2.10;;
59424;SDS011;45231;44.826;20.312;2023-06-10T09:22:05;5.25;;;2.08;;
59424;SDS011;45231;44.826;20.312;2023-06-10T09:24:32;4.28;;;2.03;;
59424;SDS011;45231;44.826;20.312;2023-06-10T09:27:02;6.03;;;2.50;;
59424;SDS011;45231;44.826;20.312;2023-06-10T09:29:28;4.72;;;2.10;;
59424;SDS011;45231;44.826;20.312;2023-06-10T09:31:54;5.72;;;2.15;;
59424;SDS011;45231;44.826;20.312;2023-06-10T09:34:24;5.65;;;2.00;;
59424;SDS011;45231;44.826;20.312;2023-06-10T09:36:50;7.60;;;2.20;;
59424;SDS011;45231;44.826;20.312;2023-06-10T09:39:17;4.78;;;2.15;;
59424;SDS011;45231;44.826;20.312;2023-06-10T09:41:44;4.85;;;2.00;;
59424;SDS011;45231;44.826;20.312;2023-06-10T09:44:14;5.63;;;1.88;;
59424;SDS011;45231;44.826;20.312;2023-06-10T09:46:40;4.07;;;2.20;;
59424;SDS011;45231;44.826;20.312;2023-06-10T09:49:06;3.33;;;1.70;;
59424;SDS011;45231;44.826;20.312;2023-06-10T09:51:32;3.53;;;1.85;;
59424;SDS011;45231;44.826;20.312;2023-06-10T09:53:59;4.97;;;2.30;;
59424;SDS011;45231;44.826;20.312;2023-06-10T09:56:34;4.40;;;2.15;;
59424;SDS011;45231;44.826;20.312;2023-06-10T09:59:00;4.75;;;2.17;;
59424;SDS011;45231;44.826;20.312;2023-06-10T10:01:26;4.88;;;2.05;;
59424;SDS011;45231;44.826;20.312;2023-06-10T10:03:52;3.90;;;2.08;;
59424;SDS011;45231;44.826;20.312;2023-06-10T10:06:19;3.80;;;1.95;;
59424;SDS011;45231;44.826;20.312;2023-06-10T10:08:46;3.55;;;1.80;;
59424;SDS011;45231;44.826;20.312;2023-06-10T10:11:13;3.60;;;1.67;;
59424;SDS011;45231;44.826;20.312;2023-06-10T10:13:40;3.47;;;1.60;;
59424;SDS011;45231;44.826;20.312;2023-06-10T10:16:11;5.47;;;1.98;;
59424;SDS011;45231;44.826;20.312;2023-06-10T10:18:41;4.38;;;2.00;;
59424;SDS011;45231;44.826;20.312;2023-06-10T10:21:12;4.93;;;2.20;;
59424;SDS011;45231;44.826;20.312;2023-06-10T10:23:40;3.70;;;2.10;;
59424;SDS011;45231;44.826;20.312;2023-06-10T10:26:09;5.40;;;1.98;;
59424;SDS011;45231;44.826;20.312;2023-06-10T10:28:45;8.95;;;2.38;;
59424;SDS011;45231;44.826;20.312;2023-06-10T10:31:15;4.80;;;2.22;;
59424;SDS011;45231;44.826;20.312;2023-06-10T10:36:18;4.53;;;1.90;;
59424;SDS011;45231;44.826;20.312;2023-06-10T10:38:45;5.30;;;2.40;;
59424;SDS011;45231;44.826;20.312;2023-06-10T10:41:11;4.05;;;1.88;;
59424;SDS011;45231;44.826;20.312;2023-06-10T10:43:38;4.63;;;2.00;;
59424;SDS011;45231;44.826;20.312;2023-06-10T10:46:08;5.18;;;2.10;;
59424;SDS011;45231;44.826;20.312;2023-06-10T10:48:36;3.40;;;1.70;;
59424;SDS011;45231;44.826;20.312;2023-06-10T10:51:03;6.32;;;2.10;;
59424;SDS011;45231;44.826;20.312;2023-06-10T10:53:29;4.25;;;2.00;;
59424;SDS011;45231;44.826;20.312;2023-06-10T10:58:30;3.80;;;1.80;;
59424;SDS011;45231;44.826;20.312;2023-06-10T11:00:57;3.78;;;2.08;;
59424;SDS011;45231;44.826;20.312;2023-06-10T11:03:24;3.58;;;1.67;;
59424;SDS011;45231;44.826;20.312;2023-06-10T11:05:53;6.05;;;2.20;;
59424;SDS011;45231;44.826;20.312;2023-06-10T11:10:55;5.10;;;2.22;;
59424;SDS011;45231;44.826;20.312;2023-06-10T11:13:21;8.32;;;2.20;;
59424;SDS011;45231;44.826;20.312;2023-06-10T11:15:48;7.05;;;2.53;;
59424;SDS011;45231;44.826;20.312;2023-06-10T11:31:21;9.38;;;2.13;;
59424;SDS011;45231;44.826;20.312;2023-06-10T11:33:48;5.78;;;2.75;;
59424;SDS011;45231;44.826;20.312;2023-06-10T11:36:14;5.18;;;2.50;;
59424;SDS011;45231;44.826;20.312;2023-06-10T11:38:40;5.65;;;2.33;;
59424;SDS011;45231;44.826;20.312;2023-06-10T11:41:06;3.97;;;2.20;;
59424;SDS011;45231;44.826;20.312;2023-06-10T11:43:33;6.78;;;2.40;;
59424;SDS011;45231;44.826;20.312;2023-06-10T11:45:59;4.28;;;2.25;;
59424;SDS011;45231;44.826;20.312;2023-06-10T11:48:26;5.28;;;2.40;;
59424;SDS011;45231;44.826;20.312;2023-06-10T11:50:56;4.75;;;1.95;;
59424;SDS011;45231;44.826;20.312;2023-06-10T11:53:22;4.95;;;2.22;;
59424;SDS011;45231;44.826;20.312;2023-06-10T11:55:49;5.53;;;2.10;;
59424;SDS011;45231;44.826;20.312;2023-06-10T11:58:16;4.57;;;2.50;;
59424;SDS011;45231;44.826;20.312;2023-06-10T12:00:46;4.70;;;2.00;;
59424;SDS011;45231;44.826;20.312;2023-06-10T12:03:12;3.60;;;2.05;;
59424;SDS011;45231;44.826;20.312;2023-06-10T12:05:38;4.40;;;2.17;;
59424;SDS011;45231;44.826;20.312;2023-06-10T12:08:11;6.13;;;2.58;;
59424;SDS011;45231;44.826;20.312;2023-06-10T12:10:40;5.15;;;2.60;;
59424;SDS011;45231;44.826;20.312;2023-06-10T12:13:08;4.30;;;2.20;;
59424;SDS011;45231;44.826;20.312;2023-06-10T12:15:34;5.18;;;2.20;;
59424;SDS011;45231;44.826;20.312;2023-06-10T12:18:00;7.05;;;2.53;;
59424;SDS011;45231;44.826;20.312;2023-06-10T12:20:29;4.95;;;2.65;;
59424;SDS011;45231;44.826;20.312;2023-06-10T12:22:55;5.70;;;2.45;;
59424;SDS011;45231;44.826;20.312;2023-06-10T12:25:25;6.15;;;2.60;;
59424;SDS011;45231;44.826;20.312;2023-06-10T12:27:52;6.32;;;2.10;;
59424;SDS011;45231;44.826;20.312;2023-06-10T12:30:19;7.32;;;2.40;;
59424;SDS011;45231;44.826;20.312;2023-06-10T12:32:46;6.30;;;2.30;;
59424;SDS011;45231;44.826;20.312;2023-06-10T12:35:13;6.38;;;2.95;;
59424;SDS011;45231;44.826;20.312;2023-06-10T12:37:40;6.00;;;2.67;;
59424;SDS011;45231;44.826;20.312;2023-06-10T12:40:06;5.80;;;2.35;;
59424;SDS011;45231;44.826;20.312;2023-06-10T12:42:36;6.57;;;2.35;;
59424;SDS011;45231;44.826;20.312;2023-06-10T12:45:02;7.15;;;2.55;;
59424;SDS011;45231;44.826;20.312;2023-06-10T12:47:29;5.95;;;2.20;;
59424;SDS011;45231;44.826;20.312;2023-06-10T12:49:57;4.90;;;2.03;;
59424;SDS011;45231;44.826;20.312;2023-06-10T12:52:24;5.22;;;2.08;;
59424;SDS011;45231;44.826;20.312;2023-06-10T12:54:50;6.22;;;2.35;;
59424;SDS011;45231;44.826;20.312;2023-06-10T12:57:17;4.47;;;1.95;;
59424;SDS011;45231;44.826;20.312;2023-06-10T12:59:43;5.20;;;2.03;;
59424;SDS011;45231;44.826;20.312;2023-06-10T13:02:15;4.40;;;2.20;;
59424;SDS011;45231;44.826;20.312;2023-06-10T13:04:43;6.53;;;2.47;;
59424;SDS011;45231;44.826;20.312;2023-06-10T13:07:09;5.95;;;2.10;;
59424;SDS011;45231;44.826;20.312;2023-06-10T13:09:36;5.10;;;1.65;;
59424;SDS011;45231;44.826;20.312;2023-06-10T13:12:02;4.85;;;1.42;;
59424;SDS011;45231;44.826;20.312;2023-06-10T13:14:28;3.03;;;1.25;;
59424;SDS011;45231;44.826;20.312;2023-06-10T13:16:54;2.65;;;1.30;;
59424;SDS011;45231;44.826;20.312;2023-06-10T13:19:21;2.40;;;1.20;;
59424;SDS011;45231;44.826;20.312;2023-06-10T13:21:47;3.47;;;1.20;;
59424;SDS011;45231;44.826;20.312;2023-06-10T13:24:13;5.07;;;1.13;;
59424;SDS011;45231;44.826;20.312;2023-06-10T13:26:39;4.22;;;1.45;;
59424;SDS011;45231;44.826;20.312;2023-06-10T13:29:05;2.70;;;1.20;;
59424;SDS011;45231;44.826;20.312;2023-06-10T13:31:33;3.35;;;1.15;;
59424;SDS011;45231;44.826;20.312;2023-06-10T13:33:59;3.25;;;1.35;;
59424;SDS011;45231;44.826;20.312;2023-06-10T13:36:25;3.88;;;1.48;;
59424;SDS011;45231;44.826;20.312;2023-06-10T13:38:51;3.65;;;1.35;;
59424;SDS011;45231;44.826;20.312;2023-06-10T13:41:17;3.78;;;1.40;;
59424;SDS011;45231;44.826;20.312;2023-06-10T13:43:43;4.25;;;1.70;;
59424;SDS011;45231;44.826;20.312;2023-06-10T13:46:09;4.28;;;2.00;;
59424;SDS011;45231;44.826;20.312;2023-06-10T13:48:35;3.92;;;1.88;;
59424;SDS011;45231;44.826;20.312;2023-06-10T13:51:01;5.18;;;2.22;;
59424;SDS011;45231;44.826;20.312;2023-06-10T13:53:27;5.05;;;2.47;;
59424;SDS011;45231;44.826;20.312;2023-06-10T13:55:54;5.13;;;2.33;;
59424;SDS011;45231;44.826;20.312;2023-06-10T13:58:20;8.45;;;2.80;;
59424;SDS011;45231;44.826;20.312;2023-06-10T14:00:46;5.88;;;2.75;;
59424;SDS011;45231;44.826;20.312;2023-06-10T14:03:12;6.00;;;2.97;;
59424;SDS011;45231;44.826;20.312;2023-06-10T14:05:38;5.50;;;3.10;;
59424;SDS011;45231;44.826;20.312;2023-06-10T14:08:04;6.45;;;3.05;;
59424;SDS011;45231;44.826;20.312;2023-06-10T14:10:30;6.00;;;3.00;;
59424;SDS011;45231;44.826;20.312;2023-06-10T14:12:56;5.32;;;2.90;;
59424;SDS011;45231;44.826;20.312;2023-06-10T14:15:22;5.38;;;2.67;;
59424;SDS011;45231;44.826;20.312;2023-06-10T14:17:49;4.90;;;2.92;;
59424;SDS011;45231;44.826;20.312;2023-06-10T14:20:15;9.25;;;3.17;;
59424;SDS011;45231;44.826;20.312;2023-06-10T14:22:41;5.13;;;3.10;;
59424;SDS011;45231;44.826;20.312;2023-06-10T14:25:07;5.38;;;3.28;;
59424;SDS011;45231;44.826;20.312;2023-06-10T14:27:33;6.05;;;3.33;;
59424;SDS011;45231;44.826;20.312;2023-06-10T14:29:59;5.60;;;3.10;;
59424;SDS011;45231;44.826;20.312;2023-06-10T14:32:25;5.75;;;2.85;;
59424;SDS011;45231;44.826;20.312;2023-06-10T14:34:51;5.20;;;3.05;;
59424;SDS011;45231;44.826;20.312;2023-06-10T14:37:17;5.30;;;3.10;;
59424;SDS011;45231;44.826;20.312;2023-06-10T14:39:43;5.97;;;3.10;;
59424;SDS011;45231;44.826;20.312;2023-06-10T14:42:09;6.93;;;2.97;;
59424;SDS011;45231;44.826;20.312;2023-06-10T14:44:36;6.78;;;3.00;;
59424;SDS011;45231;44.826;20.312;2023-06-10T14:47:02;6.45;;;3.00;;
59424;SDS011;45231;44.826;20.312;2023-06-10T14:49:28;5.68;;;3.13;;
59424;SDS011;45231;44.826;20.312;2023-06-10T14:51:54;8.80;;;3.40;;
59424;SDS011;45231;44.826;20.312;2023-06-10T14:54:20;5.00;;;2.92;;
59424;SDS011;45231;44.826;20.312;2023-06-10T14:56:46;8.00;;;2.92;;
59424;SDS011;45231;44.826;20.312;2023-06-10T14:59:12;5.70;;;2.70;;
59424;SDS011;45231;44.826;20.312;2023-06-10T15:01:38;5.35;;;2.92;;
59424;SDS011;45231;44.826;20.312;2023-06-10T15:04:04;5.80;;;3.30;;
59424;SDS011;45231;44.826;20.312;2023-06-10T15:06:30;8.20;;;3.40;;
59424;SDS011;45231;44.826;20.312;2023-06-10T15:08:56;5.35;;;3.17;;
59424;SDS011;45231;44.826;20.312;2023-06-10T15:11:22;5.63;;;2.83;;
59424;SDS011;45231;44.826;20.312;2023-06-10T15:13:48;4.50;;;2.60;;
59424;SDS011;45231;44.826;20.312;2023-06-10T15:16:15;4.63;;;2.78;;
59424;SDS011;45231;44.826;20.312;2023-06-10T15:18:41;7.13;;;2.95;;